sensor_id;sensor_type;location;lat;lon;timestamp;P1;durP1;ratioP1;P2;durP2;ratioP2
75616;SDS011;64200;55.426;37.758;2023-12-29T00:02:45;1.20;;;0.63;;
75616;SDS011;64200;55.426;37.758;2023-12-29T00:07:45;2.30;;;0.90;;
75616;SDS011;64200;55.426;37.758;2023-12-29T00:12:46;1.07;;;0.50;;
75616;SDS011;64200;55.426;37.758;2023-12-29T00:17:46;2.27;;;1.00;;
75616;SDS011;64200;55.426;37.758;2023-12-29T00:22:47;1.88;;;0.90;;
75616;SDS011;64200;55.426;37.758;2023-12-29T00:27:47;2.47;;;1.10;;
75616;SDS011;64200;55.426;37.758;2023-12-29T00:32:49;1.95;;;1.00;;
75616;SDS011;64200;55.426;37.758;2023-12-29T00:37:50;1.50;;;0.97;;
75616;SDS011;64200;55.426;37.758;2023-12-29T00:42:51;2.47;;;0.80;;
75616;SDS011;64200;55.426;37.758;2023-12-29T00:47:51;1.90;;;0.20;;
75616;SDS011;64200;55.426;37.758;2023-12-29T00:52:52;1.27;;;0.80;;
75616;SDS011;64200;55.426;37.758;2023-12-29T00:57:52;0.30;;;0.20;;
75616;SDS011;64200;55.426;37.758;2023-12-29T01:02:53;0.28;;;0.22;;
75616;SDS011;64200;55.426;37.758;2023-12-29T01:07:54;1.53;;;0.53;;
75616;SDS011;64200;55.426;37.758;2023-12-29T01:12:55;1.33;;;1.05;;
75616;SDS011;64200;55.426;37.758;2023-12-29T01:17:55;1.27;;;0.80;;
75616;SDS011;64200;55.426;37.758;2023-12-29T01:22:56;0.77;;;0.10;;
75616;SDS011;64200;55.426;37.758;2023-12-29T01:27:56;1.00;;;0.60;;
75616;SDS011;64200;55.426;37.758;2023-12-29T01:32:57;1.37;;;0.80;;
75616;SDS011;64200;55.426;37.758;2023-12-29T01:37:57;1.50;;;0.82;;
75616;SDS011;64200;55.426;37.758;2023-12-29T01:42:58;0.73;;;0.43;;
75616;SDS011;64200;55.426;37.758;2023-12-29T01:47:58;0.43;;;0.30;;
75616;SDS011;64200;55.426;37.758;2023-12-29T01:52:59;1.15;;;0.70;;
75616;SDS011;64200;55.426;37.758;2023-12-29T01:58:03;0.25;;;0.17;;
75616;SDS011;64200;55.426;37.758;2023-12-29T02:03:04;0.88;;;0.43;;
75616;SDS011;64200;55.426;37.758;2023-12-29T02:08:05;1.52;;;0.40;;
75616;SDS011;64200;55.426;37.758;2023-12-29T02:13:06;0.98;;;0.52;;
75616;SDS011;64200;55.426;37.758;2023-12-29T02:18:06;4.67;;;0.63;;
75616;SDS011;64200;55.426;37.758;2023-12-29T02:23:15;1.10;;;0.70;;
75616;SDS011;64200;55.426;37.758;2023-12-29T02:28:18;1.37;;;0.70;;
75616;SDS011;64200;55.426;37.758;2023-12-29T02:33:23;1.85;;;0.68;;
75616;SDS011;64200;55.426;37.758;2023-12-29T02:38:25;2.67;;;1.00;;
75616;SDS011;64200;55.426;37.758;2023-12-29T02:43:28;3.90;;;1.40;;
75616;SDS011;64200;55.426;37.758;2023-12-29T02:48:31;1.10;;;0.60;;
75616;SDS011;64200;55.426;37.758;2023-12-29T02:53:31;1.27;;;0.63;;
75616;SDS011;64200;55.426;37.758;2023-12-29T02:58:32;2.50;;;1.27;;
75616;SDS011;64200;55.426;37.758;2023-12-29T03:03:32;1.77;;;1.00;;
75616;SDS011;64200;55.426;37.758;2023-12-29T03:08:33;1.43;;;0.90;;
75616;SDS011;64200;55.426;37.758;2023-12-29T03:13:33;2.23;;;0.97;;
75616;SDS011;64200;55.426;37.758;2023-12-29T03:18:34;1.80;;;1.23;;
75616;SDS011;64200;55.426;37.758;2023-12-29T03:23:38;1.75;;;0.82;;
75616;SDS011;64200;55.426;37.758;2023-12-29T03:28:38;3.20;;;0.87;;
75616;SDS011;64200;55.426;37.758;2023-12-29T03:33:39;1.40;;;0.53;;
75616;SDS011;64200;55.426;37.758;2023-12-29T03:38:40;3.38;;;0.88;;
75616;SDS011;64200;55.426;37.758;2023-12-29T03:43:41;1.33;;;0.52;;
75616;SDS011;64200;55.426;37.758;2023-12-29T03:48:41;2.27;;;1.20;;
75616;SDS011;64200;55.426;37.758;2023-12-29T03:53:42;2.50;;;0.95;;
75616;SDS011;64200;55.426;37.758;2023-12-29T03:58:42;1.50;;;0.67;;
75616;SDS011;64200;55.426;37.758;2023-12-29T04:03:44;1.55;;;0.63;;
75616;SDS011;64200;55.426;37.758;2023-12-29T04:08:44;0.50;;;0.50;;
75616;SDS011;64200;55.426;37.758;2023-12-29T04:13:45;0.30;;;0.13;;
75616;SDS011;64200;55.426;37.758;2023-12-29T04:18:45;1.60;;;0.83;;
75616;SDS011;64200;55.426;37.758;2023-12-29T04:23:46;1.40;;;0.67;;
75616;SDS011;64200;55.426;37.758;2023-12-29T04:28:47;1.33;;;0.68;;
75616;SDS011;64200;55.426;37.758;2023-12-29T04:38:47;1.70;;;0.90;;
75616;SDS011;64200;55.426;37.758;2023-12-29T04:43:48;1.80;;;0.70;;
75616;SDS011;64200;55.426;37.758;2023-12-29T04:48:48;3.33;;;0.80;;
75616;SDS011;64200;55.426;37.758;2023-12-29T04:53:49;1.80;;;0.88;;
75616;SDS011;64200;55.426;37.758;2023-12-29T04:58:51;3.70;;;2.07;;
75616;SDS011;64200;55.426;37.758;2023-12-29T05:03:52;1.52;;;0.68;;
75616;SDS011;64200;55.426;37.758;2023-12-29T05:08:52;2.70;;;1.42;;
75616;SDS011;64200;55.426;37.758;2023-12-29T05:13:53;3.00;;;0.90;;
75616;SDS011;64200;55.426;37.758;2023-12-29T05:18:53;4.03;;;1.40;;
75616;SDS011;64200;55.426;37.758;2023-12-29T05:23:53;1.40;;;0.67;;
75616;SDS011;64200;55.426;37.758;2023-12-29T05:28:54;1.70;;;1.10;;
75616;SDS011;64200;55.426;37.758;2023-12-29T05:33:55;2.87;;;1.23;;
75616;SDS011;64200;55.426;37.758;2023-12-29T05:38:56;0.73;;;0.68;;
75616;SDS011;64200;55.426;37.758;2023-12-29T05:43:56;1.80;;;0.73;;
75616;SDS011;64200;55.426;37.758;2023-12-29T05:48:58;1.10;;;0.77;;
75616;SDS011;64200;55.426;37.758;2023-12-29T05:53:59;1.60;;;0.85;;
75616;SDS011;64200;55.426;37.758;2023-12-29T05:58:59;3.50;;;1.73;;
75616;SDS011;64200;55.426;37.758;2023-12-29T06:04:00;2.83;;;1.40;;
75616;SDS011;64200;55.426;37.758;2023-12-29T06:09:00;1.65;;;0.52;;
75616;SDS011;64200;55.426;37.758;2023-12-29T06:14:01;2.60;;;0.70;;
75616;SDS011;64200;55.426;37.758;2023-12-29T06:19:01;3.20;;;1.10;;
75616;SDS011;64200;55.426;37.758;2023-12-29T06:24:02;5.20;;;1.17;;
75616;SDS011;64200;55.426;37.758;2023-12-29T06:29:02;2.60;;;1.33;;
75616;SDS011;64200;55.426;37.758;2023-12-29T06:34:03;2.97;;;1.20;;
75616;SDS011;64200;55.426;37.758;2023-12-29T06:39:03;2.85;;;1.10;;
75616;SDS011;64200;55.426;37.758;2023-12-29T06:44:04;3.63;;;1.60;;
75616;SDS011;64200;55.426;37.758;2023-12-29T06:49:08;5.63;;;1.20;;
75616;SDS011;64200;55.426;37.758;2023-12-29T06:54:09;1.85;;;1.02;;
75616;SDS011;64200;55.426;37.758;2023-12-29T06:59:09;2.77;;;1.20;;
75616;SDS011;64200;55.426;37.758;2023-12-29T07:04:10;2.57;;;1.37;;
75616;SDS011;64200;55.426;37.758;2023-12-29T07:09:11;5.00;;;0.63;;
75616;SDS011;64200;55.426;37.758;2023-12-29T07:14:11;1.17;;;0.60;;
75616;SDS011;64200;55.426;37.758;2023-12-29T07:19:12;3.67;;;1.80;;
75616;SDS011;64200;55.426;37.758;2023-12-29T07:24:12;2.70;;;0.50;;
75616;SDS011;64200;55.426;37.758;2023-12-29T07:29:13;2.27;;;1.27;;
75616;SDS011;64200;55.426;37.758;2023-12-29T07:34:13;5.03;;;1.37;;
75616;SDS011;64200;55.426;37.758;2023-12-29T07:39:14;3.23;;;1.43;;
75616;SDS011;64200;55.426;37.758;2023-12-29T07:44:14;1.63;;;1.17;;
75616;SDS011;64200;55.426;37.758;2023-12-29T07:49:15;4.47;;;1.55;;
75616;SDS011;64200;55.426;37.758;2023-12-29T07:54:17;4.38;;;1.83;;
75616;SDS011;64200;55.426;37.758;2023-12-29T07:59:17;3.80;;;1.88;;
75616;SDS011;64200;55.426;37.758;2023-12-29T08:04:18;5.00;;;1.57;;
75616;SDS011;64200;55.426;37.758;2023-12-29T08:09:18;2.77;;;1.50;;
75616;SDS011;64200;55.426;37.758;2023-12-29T08:14:20;9.30;;;2.25;;
75616;SDS011;64200;55.426;37.758;2023-12-29T08:19:20;2.27;;;0.93;;
75616;SDS011;64200;55.426;37.758;2023-12-29T08:24:21;2.63;;;1.57;;
75616;SDS011;64200;55.426;37.758;2023-12-29T08:29:21;2.90;;;1.57;;
75616;SDS011;64200;55.426;37.758;2023-12-29T08:34:22;1.77;;;0.80;;
75616;SDS011;64200;55.426;37.758;2023-12-29T08:39:22;1.43;;;1.03;;
75616;SDS011;64200;55.426;37.758;2023-12-29T08:44:23;4.72;;;1.75;;
75616;SDS011;64200;55.426;37.758;2023-12-29T08:49:25;5.30;;;2.25;;
75616;SDS011;64200;55.426;37.758;2023-12-29T08:54:27;2.28;;;1.45;;
75616;SDS011;64200;55.426;37.758;2023-12-29T08:59:27;1.70;;;1.20;;
75616;SDS011;64200;55.426;37.758;2023-12-29T09:04:28;3.57;;;1.63;;
75616;SDS011;64200;55.426;37.758;2023-12-29T09:09:28;3.10;;;1.27;;
75616;SDS011;64200;55.426;37.758;2023-12-29T09:14:29;2.77;;;1.87;;
75616;SDS011;64200;55.426;37.758;2023-12-29T09:19:32;8.88;;;2.30;;
75616;SDS011;64200;55.426;37.758;2023-12-29T09:24:33;6.05;;;2.70;;
75616;SDS011;64200;55.426;37.758;2023-12-29T09:29:33;5.17;;;2.40;;
75616;SDS011;64200;55.426;37.758;2023-12-29T09:34:34;5.60;;;3.00;;
75616;SDS011;64200;55.426;37.758;2023-12-29T09:39:34;2.87;;;1.47;;
75616;SDS011;64200;55.426;37.758;2023-12-29T09:44:35;6.03;;;1.47;;
75616;SDS011;64200;55.426;37.758;2023-12-29T09:49:37;1.75;;;0.95;;
75616;SDS011;64200;55.426;37.758;2023-12-29T09:54:41;8.13;;;3.08;;
75616;SDS011;64200;55.426;37.758;2023-12-29T09:59:42;4.40;;;2.30;;
75616;SDS011;64200;55.426;37.758;2023-12-29T10:04:43;8.57;;;3.10;;
75616;SDS011;64200;55.426;37.758;2023-12-29T10:09:44;8.55;;;3.55;;
75616;SDS011;64200;55.426;37.758;2023-12-29T10:14:48;5.97;;;3.28;;
75616;SDS011;64200;55.426;37.758;2023-12-29T10:20:02;4.95;;;2.78;;
75616;SDS011;64200;55.426;37.758;2023-12-29T10:25:23;5.28;;;2.55;;
75616;SDS011;64200;55.426;37.758;2023-12-29T10:30:23;3.10;;;1.67;;
75616;SDS011;64200;55.426;37.758;2023-12-29T10:35:24;8.18;;;3.72;;
75616;SDS011;64200;55.426;37.758;2023-12-29T10:40:24;5.57;;;2.60;;
75616;SDS011;64200;55.426;37.758;2023-12-29T10:45:25;7.85;;;3.25;;
75616;SDS011;64200;55.426;37.758;2023-12-29T10:50:26;5.17;;;3.00;;
75616;SDS011;64200;55.426;37.758;2023-12-29T10:55:31;6.78;;;3.58;;
75616;SDS011;64200;55.426;37.758;2023-12-29T11:00:32;5.22;;;2.72;;
75616;SDS011;64200;55.426;37.758;2023-12-29T11:05:35;6.45;;;3.03;;
75616;SDS011;64200;55.426;37.758;2023-12-29T11:10:36;6.38;;;2.90;;
75616;SDS011;64200;55.426;37.758;2023-12-29T11:15:37;5.65;;;3.17;;
75616;SDS011;64200;55.426;37.758;2023-12-29T11:20:42;5.90;;;3.22;;
75616;SDS011;64200;55.426;37.758;2023-12-29T11:25:46;5.35;;;3.53;;
75616;SDS011;64200;55.426;37.758;2023-12-29T11:30:48;6.20;;;3.33;;
75616;SDS011;64200;55.426;37.758;2023-12-29T11:35:53;5.97;;;3.17;;
75616;SDS011;64200;55.426;37.758;2023-12-29T11:56:38;9.25;;;4.45;;
75616;SDS011;64200;55.426;37.758;2023-12-29T12:01:45;6.78;;;3.63;;
75616;SDS011;64200;55.426;37.758;2023-12-29T12:06:47;5.80;;;3.35;;
75616;SDS011;64200;55.426;37.758;2023-12-29T12:11:48;7.67;;;4.07;;
75616;SDS011;64200;55.426;37.758;2023-12-29T12:16:50;8.90;;;3.72;;
75616;SDS011;64200;55.426;37.758;2023-12-29T12:21:53;9.02;;;4.68;;
75616;SDS011;64200;55.426;37.758;2023-12-29T12:26:55;7.10;;;4.03;;
75616;SDS011;64200;55.426;37.758;2023-12-29T12:31:56;6.90;;;4.05;;
75616;SDS011;64200;55.426;37.758;2023-12-29T12:36:57;11.00;;;4.72;;
75616;SDS011;64200;55.426;37.758;2023-12-29T12:41:59;11.48;;;4.97;;
75616;SDS011;64200;55.426;37.758;2023-12-29T12:47:01;8.38;;;4.03;;
75616;SDS011;64200;55.426;37.758;2023-12-29T12:52:08;8.68;;;3.92;;
75616;SDS011;64200;55.426;37.758;2023-12-29T12:57:09;12.20;;;4.07;;
75616;SDS011;64200;55.426;37.758;2023-12-29T13:02:11;9.20;;;4.65;;
75616;SDS011;64200;55.426;37.758;2023-12-29T13:07:14;8.43;;;3.22;;
75616;SDS011;64200;55.426;37.758;2023-12-29T13:12:16;8.25;;;4.88;;
75616;SDS011;64200;55.426;37.758;2023-12-29T13:17:17;10.25;;;4.18;;
75616;SDS011;64200;55.426;37.758;2023-12-29T13:22:18;11.48;;;4.40;;
75616;SDS011;64200;55.426;37.758;2023-12-29T13:27:19;8.52;;;3.92;;
75616;SDS011;64200;55.426;37.758;2023-12-29T13:32:21;8.25;;;4.35;;
75616;SDS011;64200;55.426;37.758;2023-12-29T13:37:34;9.68;;;4.55;;
75616;SDS011;64200;55.426;37.758;2023-12-29T13:42:40;8.50;;;3.78;;
75616;SDS011;64200;55.426;37.758;2023-12-29T13:47:45;8.40;;;3.90;;
75616;SDS011;64200;55.426;37.758;2023-12-29T13:52:46;13.05;;;4.63;;
75616;SDS011;64200;55.426;37.758;2023-12-29T13:57:47;10.93;;;4.57;;
75616;SDS011;64200;55.426;37.758;2023-12-29T14:02:57;7.23;;;3.70;;
75616;SDS011;64200;55.426;37.758;2023-12-29T14:13:12;9.87;;;4.40;;
75616;SDS011;64200;55.426;37.758;2023-12-29T14:23:32;8.63;;;4.30;;
75616;SDS011;64200;55.426;37.758;2023-12-29T14:28:33;12.43;;;4.77;;
75616;SDS011;64200;55.426;37.758;2023-12-29T14:33:33;9.80;;;5.60;;
75616;SDS011;64200;55.426;37.758;2023-12-29T14:38:36;10.82;;;4.40;;
75616;SDS011;64200;55.426;37.758;2023-12-29T14:43:36;11.40;;;5.03;;
75616;SDS011;64200;55.426;37.758;2023-12-29T14:48:36;10.17;;;5.53;;
75616;SDS011;64200;55.426;37.758;2023-12-29T14:53:38;6.45;;;3.92;;
75616;SDS011;64200;55.426;37.758;2023-12-29T14:58:39;10.02;;;4.25;;
75616;SDS011;64200;55.426;37.758;2023-12-29T15:03:40;11.30;;;4.57;;
75616;SDS011;64200;55.426;37.758;2023-12-29T15:08:41;10.55;;;5.03;;
75616;SDS011;64200;55.426;37.758;2023-12-29T15:13:41;8.63;;;4.85;;
75616;SDS011;64200;55.426;37.758;2023-12-29T15:18:42;8.57;;;3.83;;
75616;SDS011;64200;55.426;37.758;2023-12-29T15:23:43;8.80;;;4.38;;
75616;SDS011;64200;55.426;37.758;2023-12-29T15:28:43;12.33;;;4.73;;
75616;SDS011;64200;55.426;37.758;2023-12-29T15:33:44;9.97;;;4.93;;
75616;SDS011;64200;55.426;37.758;2023-12-29T15:38:44;9.48;;;4.60;;
75616;SDS011;64200;55.426;37.758;2023-12-29T15:43:45;9.82;;;4.70;;
75616;SDS011;64200;55.426;37.758;2023-12-29T15:48:46;11.80;;;6.05;;
75616;SDS011;64200;55.426;37.758;2023-12-29T15:53:47;9.47;;;4.50;;
75616;SDS011;64200;55.426;37.758;2023-12-29T15:58:47;9.05;;;4.50;;
75616;SDS011;64200;55.426;37.758;2023-12-29T16:03:48;8.82;;;4.60;;
75616;SDS011;64200;55.426;37.758;2023-12-29T16:08:48;10.53;;;4.17;;
75616;SDS011;64200;55.426;37.758;2023-12-29T16:13:52;6.65;;;3.65;;
75616;SDS011;64200;55.426;37.758;2023-12-29T16:18:53;6.18;;;3.53;;
75616;SDS011;64200;55.426;37.758;2023-12-29T16:23:54;10.23;;;4.37;;
75616;SDS011;64200;55.426;37.758;2023-12-29T16:28:54;9.10;;;3.75;;
75616;SDS011;64200;55.426;37.758;2023-12-29T16:33:55;7.97;;;3.28;;
75616;SDS011;64200;55.426;37.758;2023-12-29T16:38:55;7.93;;;3.10;;
75616;SDS011;64200;55.426;37.758;2023-12-29T16:43:56;6.82;;;3.63;;
75616;SDS011;64200;55.426;37.758;2023-12-29T16:48:57;9.77;;;3.97;;
75616;SDS011;64200;55.426;37.758;2023-12-29T16:53:57;6.45;;;3.33;;
75616;SDS011;64200;55.426;37.758;2023-12-29T16:58:58;10.52;;;4.05;;
75616;SDS011;64200;55.426;37.758;2023-12-29T17:04:00;6.05;;;2.92;;
75616;SDS011;64200;55.426;37.758;2023-12-29T17:09:01;8.07;;;3.33;;
75616;SDS011;64200;55.426;37.758;2023-12-29T17:14:01;10.37;;;5.13;;
75616;SDS011;64200;55.426;37.758;2023-12-29T17:19:02;8.93;;;4.80;;
75616;SDS011;64200;55.426;37.758;2023-12-29T17:24:03;10.15;;;4.82;;
75616;SDS011;64200;55.426;37.758;2023-12-29T17:29:04;9.07;;;4.05;;
75616;SDS011;64200;55.426;37.758;2023-12-29T17:34:05;6.13;;;4.00;;
75616;SDS011;64200;55.426;37.758;2023-12-29T17:39:05;13.00;;;4.87;;
75616;SDS011;64200;55.426;37.758;2023-12-29T17:44:06;11.95;;;5.10;;
75616;SDS011;64200;55.426;37.758;2023-12-29T17:49:06;16.47;;;5.93;;
75616;SDS011;64200;55.426;37.758;2023-12-29T17:54:07;11.05;;;4.50;;
75616;SDS011;64200;55.426;37.758;2023-12-29T17:59:08;12.57;;;6.10;;
75616;SDS011;64200;55.426;37.758;2023-12-29T18:04:08;12.10;;;5.40;;
75616;SDS011;64200;55.426;37.758;2023-12-29T18:09:09;8.07;;;4.65;;
75616;SDS011;64200;55.426;37.758;2023-12-29T18:14:14;11.07;;;5.60;;
75616;SDS011;64200;55.426;37.758;2023-12-29T18:19:14;13.35;;;5.80;;
75616;SDS011;64200;55.426;37.758;2023-12-29T18:24:22;7.72;;;3.55;;
75616;SDS011;64200;55.426;37.758;2023-12-29T18:29:23;11.90;;;5.53;;
75616;SDS011;64200;55.426;37.758;2023-12-29T18:34:25;15.23;;;6.28;;
75616;SDS011;64200;55.426;37.758;2023-12-29T18:39:25;9.27;;;4.20;;
75616;SDS011;64200;55.426;37.758;2023-12-29T18:44:26;5.90;;;2.92;;
75616;SDS011;64200;55.426;37.758;2023-12-29T18:49:26;8.10;;;4.80;;
75616;SDS011;64200;55.426;37.758;2023-12-29T18:54:27;5.57;;;2.83;;
75616;SDS011;64200;55.426;37.758;2023-12-29T19:04:34;16.77;;;5.70;;
75616;SDS011;64200;55.426;37.758;2023-12-29T19:09:34;8.60;;;3.90;;
75616;SDS011;64200;55.426;37.758;2023-12-29T19:14:35;10.52;;;4.80;;
75616;SDS011;64200;55.426;37.758;2023-12-29T19:19:36;10.30;;;5.40;;
75616;SDS011;64200;55.426;37.758;2023-12-29T19:24:36;17.77;;;7.17;;
75616;SDS011;64200;55.426;37.758;2023-12-29T19:29:41;18.55;;;6.70;;
75616;SDS011;64200;55.426;37.758;2023-12-29T19:34:45;14.02;;;5.57;;
75616;SDS011;64200;55.426;37.758;2023-12-29T19:39:45;16.60;;;5.78;;
75616;SDS011;64200;55.426;37.758;2023-12-29T19:44:46;12.07;;;5.77;;
75616;SDS011;64200;55.426;37.758;2023-12-29T19:49:46;10.30;;;5.03;;
75616;SDS011;64200;55.426;37.758;2023-12-29T19:54:47;9.25;;;3.80;;
75616;SDS011;64200;55.426;37.758;2023-12-29T19:59:48;10.13;;;4.43;;
75616;SDS011;64200;55.426;37.758;2023-12-29T20:04:50;9.48;;;4.88;;
75616;SDS011;64200;55.426;37.758;2023-12-29T20:09:51;12.40;;;5.40;;
75616;SDS011;64200;55.426;37.758;2023-12-29T20:14:52;7.93;;;2.93;;
75616;SDS011;64200;55.426;37.758;2023-12-29T20:19:54;12.52;;;5.10;;
75616;SDS011;64200;55.426;37.758;2023-12-29T20:24:55;5.40;;;3.67;;
75616;SDS011;64200;55.426;37.758;2023-12-29T20:29:56;12.93;;;4.70;;
75616;SDS011;64200;55.426;37.758;2023-12-29T20:34:56;12.27;;;4.85;;
75616;SDS011;64200;55.426;37.758;2023-12-29T20:39:58;4.30;;;2.13;;
75616;SDS011;64200;55.426;37.758;2023-12-29T20:45:00;6.53;;;3.25;;
75616;SDS011;64200;55.426;37.758;2023-12-29T20:50:01;10.50;;;5.40;;
75616;SDS011;64200;55.426;37.758;2023-12-29T20:55:01;3.53;;;1.70;;
75616;SDS011;64200;55.426;37.758;2023-12-29T21:00:04;9.13;;;3.72;;
75616;SDS011;64200;55.426;37.758;2023-12-29T21:05:06;4.35;;;2.80;;
75616;SDS011;64200;55.426;37.758;2023-12-29T21:10:09;5.35;;;2.17;;
75616;SDS011;64200;55.426;37.758;2023-12-29T21:15:10;4.38;;;3.10;;
75616;SDS011;64200;55.426;37.758;2023-12-29T21:20:11;6.50;;;3.17;;
75616;SDS011;64200;55.426;37.758;2023-12-29T21:25:12;8.35;;;2.97;;
75616;SDS011;64200;55.426;37.758;2023-12-29T21:30:13;2.20;;;0.80;;
75616;SDS011;64200;55.426;37.758;2023-12-29T21:35:16;4.90;;;2.70;;
75616;SDS011;64200;55.426;37.758;2023-12-29T21:40:17;4.60;;;2.05;;
75616;SDS011;64200;55.426;37.758;2023-12-29T21:45:19;3.10;;;1.83;;
75616;SDS011;64200;55.426;37.758;2023-12-29T21:50:20;5.60;;;2.65;;
75616;SDS011;64200;55.426;37.758;2023-12-29T21:55:21;1.92;;;1.20;;
75616;SDS011;64200;55.426;37.758;2023-12-29T22:00:22;2.38;;;1.48;;
75616;SDS011;64200;55.426;37.758;2023-12-29T22:05:24;2.42;;;1.50;;
75616;SDS011;64200;55.426;37.758;2023-12-29T22:10:24;3.20;;;1.33;;
75616;SDS011;64200;55.426;37.758;2023-12-29T22:15:25;1.83;;;0.97;;
75616;SDS011;64200;55.426;37.758;2023-12-29T22:20:25;4.53;;;1.80;;
75616;SDS011;64200;55.426;37.758;2023-12-29T22:25:26;2.00;;;1.13;;
75616;SDS011;64200;55.426;37.758;2023-12-29T22:30:27;2.97;;;1.67;;
75616;SDS011;64200;55.426;37.758;2023-12-29T22:35:27;0.40;;;0.30;;
75616;SDS011;64200;55.426;37.758;2023-12-29T22:40:28;2.80;;;1.60;;
75616;SDS011;64200;55.426;37.758;2023-12-29T22:45:33;2.80;;;2.00;;
75616;SDS011;64200;55.426;37.758;2023-12-29T22:50:34;2.22;;;1.33;;
75616;SDS011;64200;55.426;37.758;2023-12-29T22:55:34;1.47;;;0.90;;
75616;SDS011;64200;55.426;37.758;2023-12-29T23:00:35;3.65;;;2.00;;
75616;SDS011;64200;55.426;37.758;2023-12-29T23:05:36;2.03;;;1.33;;
75616;SDS011;64200;55.426;37.758;2023-12-29T23:10:36;2.70;;;1.20;;
75616;SDS011;64200;55.426;37.758;2023-12-29T23:15:37;2.63;;;1.40;;
75616;SDS011;64200;55.426;37.758;2023-12-29T23:20:38;5.95;;;3.05;;
75616;SDS011;64200;55.426;37.758;2023-12-29T23:25:38;3.28;;;1.98;;
75616;SDS011;64200;55.426;37.758;2023-12-29T23:30:39;5.83;;;2.80;;
75616;SDS011;64200;55.426;37.758;2023-12-29T23:35:40;3.35;;;1.83;;
75616;SDS011;64200;55.426;37.758;2023-12-29T23:40:40;4.07;;;1.97;;
75616;SDS011;64200;55.426;37.758;2023-12-29T23:45:41;2.00;;;1.73;;
75616;SDS011;64200;55.426;37.758;2023-12-29T23:50:41;3.67;;;2.10;;
75616;SDS011;64200;55.426;37.758;2023-12-29T23:55:42;1.50;;;1.07;;
